createdAt,value
2023-05-13T00:00:23.246Z,96.92
2023-05-13T00:01:22.966Z,96.92
2023-05-13T00:02:23.026Z,96.83
2023-05-13T00:03:23.024Z,96.83
2023-05-13T00:04:22.949Z,96.72
2023-05-13T00:05:22.897Z,96.72
2023-05-13T00:06:22.948Z,96.83
2023-05-13T00:07:22.915Z,96.83
2023-05-13T00:08:22.887Z,96.72
2023-05-13T00:09:22.892Z,96.72
2023-05-13T00:10:23.125Z,96.62
2023-05-13T00:11:22.834Z,96.72
2023-05-13T00:12:22.841Z,96.83
2023-05-13T00:13:22.788Z,96.83
2023-05-13T00:14:22.784Z,96.87
2023-05-13T00:15:22.807Z,96.97
2023-05-13T00:16:22.824Z,96.87
2023-05-13T00:17:22.794Z,96.87
2023-05-13T00:18:22.788Z,96.87
2023-05-13T00:19:22.723Z,96.87
2023-05-13T00:20:23.022Z,96.97
2023-05-13T00:21:22.743Z,96.97
2023-05-13T00:22:22.677Z,97.17
2023-05-13T00:23:22.680Z,97.17
2023-05-13T00:24:22.796Z,97.17
2023-05-13T00:25:22.645Z,97.17
2023-05-13T00:26:22.673Z,97.17
2023-05-13T00:27:22.611Z,97.28
2023-05-13T00:28:22.637Z,97.28
2023-05-13T00:29:22.613Z,97.28
2023-05-13T00:30:22.849Z,97.28
2023-05-13T00:31:22.598Z,97.28
2023-05-13T00:32:22.595Z,97.28
2023-05-13T00:33:22.560Z,97.38
2023-05-13T00:34:22.536Z,97.38
2023-05-13T00:35:22.500Z,97.38
2023-05-13T00:36:22.507Z,97.28
2023-05-13T00:37:22.466Z,97.28
2023-05-13T00:38:22.548Z,97.17
2023-05-13T00:39:22.502Z,96.97
2023-05-13T00:40:22.906Z,97.02
2023-05-13T00:41:22.450Z,97.12
2023-05-13T00:42:22.444Z,97.22
2023-05-13T00:43:22.422Z,97.32
2023-05-13T00:44:22.432Z,97.32
2023-05-13T00:45:22.422Z,97.32
2023-05-13T00:46:22.488Z,97.32
2023-05-13T00:47:22.375Z,97.32
2023-05-13T00:48:22.366Z,97.32
2023-05-13T00:49:30.152Z,97.53
2023-05-13T00:50:22.592Z,97.42
2023-05-13T00:51:22.307Z,97.42
2023-05-13T00:52:22.326Z,97.53
2023-05-13T00:53:22.276Z,97.53
2023-05-13T00:54:22.287Z,97.42
2023-05-13T00:55:22.278Z,97.42
2023-05-13T00:56:22.274Z,97.42
2023-05-13T00:57:22.210Z,97.32
2023-05-13T00:58:22.236Z,97.12
2023-05-13T00:59:22.259Z,97.12
2023-05-13T01:00:22.416Z,97.12
2023-05-13T01:01:22.265Z,96.92
2023-05-13T01:02:22.215Z,96.92
2023-05-13T01:03:22.165Z,96.92
2023-05-13T01:04:22.160Z,96.92
2023-05-13T01:05:22.149Z,96.81
2023-05-13T01:06:22.138Z,96.71
2023-05-13T01:07:22.117Z,96.81
2023-05-13T01:08:22.095Z,96.86
2023-05-13T01:09:22.105Z,96.86
2023-05-13T01:10:22.402Z,96.96
2023-05-13T01:11:22.033Z,96.86
2023-05-13T01:12:22.055Z,96.86
2023-05-13T01:13:22.029Z,96.96
2023-05-13T01:14:22.028Z,96.86
2023-05-13T01:15:22.041Z,96.86
2023-05-13T01:16:22.035Z,96.76
2023-05-13T01:17:21.983Z,96.76
2023-05-13T01:18:21.997Z,96.86
2023-05-13T01:19:21.962Z,96.96
2023-05-13T01:20:22.309Z,96.96
2023-05-13T01:21:21.929Z,96.96
2023-05-13T01:22:21.888Z,96.96
2023-05-13T01:23:21.906Z,96.96
2023-05-13T01:24:21.990Z,96.86
2023-05-13T01:25:21.916Z,96.86
2023-05-13T01:26:21.862Z,96.96
2023-05-13T01:27:21.839Z,96.96
2023-05-13T01:28:21.803Z,96.96
2023-05-13T01:29:21.838Z,96.86
2023-05-13T01:30:22.387Z,96.86
2023-05-13T01:31:21.890Z,96.86
2023-05-13T01:32:21.806Z,96.76
2023-05-13T01:33:21.784Z,96.76
2023-05-13T01:34:21.714Z,96.76
2023-05-13T01:35:21.734Z,96.76
2023-05-13T01:36:21.722Z,96.91
2023-05-13T01:37:21.702Z,96.91
2023-05-13T01:38:21.709Z,96.91
2023-05-13T01:39:21.687Z,97.00
2023-05-13T01:40:32.307Z,97.00
2023-05-13T01:41:22.654Z,97.00
2023-05-13T01:42:21.633Z,97.00
2023-05-13T01:43:21.650Z,96.91
2023-05-13T01:44:21.613Z,96.80
2023-05-13T01:45:21.608Z,96.80
2023-05-13T01:46:21.590Z,96.91
2023-05-13T01:47:21.617Z,96.80
2023-05-13T01:48:21.590Z,96.70
2023-05-13T01:49:21.538Z,96.80
2023-05-13T01:50:21.867Z,96.80
2023-05-13T01:51:21.568Z,96.80
2023-05-13T01:52:21.512Z,96.91
2023-05-13T01:53:21.556Z,96.91
2023-05-13T01:54:21.489Z,96.91
2023-05-13T01:55:21.478Z,96.80
2023-05-13T01:56:21.454Z,96.80
2023-05-13T01:57:21.478Z,97.00
2023-05-13T01:58:21.430Z,97.00
2023-05-13T01:59:21.407Z,97.11
2023-05-13T02:00:21.729Z,97.21
2023-05-13T02:01:22.753Z,97.21
2023-05-13T02:02:21.396Z,97.31
2023-05-13T02:03:21.551Z,97.31
2023-05-13T02:04:21.367Z,97.31
2023-05-13T02:05:21.336Z,97.31
2023-05-13T02:06:21.339Z,97.21
2023-05-13T02:07:21.295Z,97.21
2023-05-13T02:08:21.306Z,97.21
2023-05-13T02:09:21.278Z,97.11
2023-05-13T02:10:21.549Z,97.11
2023-05-13T02:11:21.287Z,97.00
2023-05-13T02:12:21.242Z,96.91
2023-05-13T02:13:21.252Z,96.84
2023-05-13T02:14:21.229Z,96.95
2023-05-13T02:15:21.220Z,96.95
2023-05-13T02:16:21.205Z,96.95
2023-05-13T02:17:21.180Z,96.95
2023-05-13T02:18:21.187Z,96.95
2023-05-13T02:19:21.637Z,96.95
2023-05-13T02:20:21.363Z,97.05
2023-05-13T02:21:21.187Z,96.95
2023-05-13T02:22:21.139Z,97.16
2023-05-13T02:23:21.168Z,97.05
2023-05-13T02:24:21.090Z,97.05
2023-05-13T02:25:21.110Z,97.05
2023-05-13T02:26:21.069Z,96.95
2023-05-13T02:27:21.136Z,96.95
2023-05-13T02:28:21.062Z,97.05
2023-05-13T02:29:21.146Z,97.16
2023-05-13T02:30:21.255Z,97.16
2023-05-13T02:31:21.062Z,97.16
2023-05-13T02:32:20.980Z,97.25
2023-05-13T02:33:20.983Z,97.25
2023-05-13T02:34:20.957Z,97.25
2023-05-13T02:35:20.980Z,97.36
2023-05-13T02:36:20.945Z,97.46
2023-05-13T02:37:20.948Z,97.56
2023-05-13T02:38:20.939Z,97.46
2023-05-13T02:39:20.887Z,97.56
2023-05-13T02:40:21.149Z,97.66
2023-05-13T02:41:20.931Z,97.56
2023-05-13T02:42:20.875Z,97.56
2023-05-13T02:43:20.896Z,97.66
2023-05-13T02:44:20.840Z,97.46
2023-05-13T02:45:20.821Z,97.46
2023-05-13T02:46:20.881Z,97.46
2023-05-13T02:47:20.834Z,97.46
2023-05-13T02:48:20.789Z,97.46
2023-05-13T02:49:20.781Z,97.36
2023-05-13T02:50:20.934Z,97.46
2023-05-13T02:51:20.734Z,97.56
2023-05-13T02:52:20.749Z,97.56
2023-05-13T02:53:20.734Z,97.56
2023-05-13T02:54:20.732Z,97.56
2023-05-13T02:55:20.738Z,97.46
2023-05-13T02:56:20.682Z,97.46
2023-05-13T02:57:20.669Z,97.46
2023-05-13T02:58:21.394Z,97.46
2023-05-13T02:59:20.634Z,97.46
2023-05-13T03:00:20.943Z,97.46
2023-05-13T03:01:20.639Z,97.46
2023-05-13T03:02:20.658Z,97.46
2023-05-13T03:03:20.706Z,97.46
2023-05-13T03:04:20.591Z,97.36
2023-05-13T03:05:20.580Z,97.46
2023-05-13T03:06:20.562Z,97.56
2023-05-13T03:07:20.583Z,97.46
2023-05-13T03:08:20.536Z,97.56
2023-05-13T03:09:21.272Z,97.46
2023-05-13T03:10:20.782Z,97.56
2023-05-13T03:11:20.492Z,97.46
2023-05-13T03:12:20.482Z,97.46
2023-05-13T03:13:20.479Z,97.36
2023-05-13T03:14:20.445Z,97.36
2023-05-13T03:15:20.458Z,97.36
2023-05-13T03:16:20.450Z,97.25
2023-05-13T03:17:20.463Z,97.36
2023-05-13T03:18:20.435Z,97.36
2023-05-13T03:19:20.434Z,97.46
2023-05-13T03:20:20.606Z,97.46
2023-05-13T03:21:20.385Z,97.56
2023-05-13T03:22:20.321Z,97.56
2023-05-13T03:23:20.341Z,97.56
2023-05-13T03:24:20.311Z,97.46
2023-05-13T03:25:20.307Z,97.46
2023-05-13T03:26:20.315Z,97.50
2023-05-13T03:27:20.280Z,97.46
2023-05-13T03:28:20.236Z,97.56
2023-05-13T03:29:20.228Z,97.66
2023-05-13T03:30:20.392Z,97.87
2023-05-13T03:31:20.253Z,97.77
2023-05-13T03:32:20.230Z,97.77
2023-05-13T03:33:20.206Z,97.66
2023-05-13T03:34:20.190Z,97.66
2023-05-13T03:35:20.155Z,97.66
2023-05-13T03:36:20.165Z,97.66
2023-05-13T03:37:20.189Z,97.66
2023-05-13T03:38:20.101Z,97.66
2023-05-13T03:39:20.133Z,97.66
2023-05-13T03:40:20.338Z,97.66
2023-05-13T03:41:20.125Z,97.66
2023-05-13T03:42:20.098Z,97.66
2023-05-13T03:43:20.103Z,97.77
2023-05-13T03:44:20.052Z,97.77
2023-05-13T03:45:20.059Z,97.77
2023-05-13T03:46:20.061Z,97.77
2023-05-13T03:47:20.057Z,97.77
2023-05-13T03:48:20.045Z,97.77
2023-05-13T03:49:20.010Z,97.66
2023-05-13T03:50:20.201Z,97.66
2023-05-13T03:51:19.974Z,97.77
2023-05-13T03:52:19.935Z,97.77
2023-05-13T03:53:20.028Z,97.77
2023-05-13T03:54:19.936Z,97.66
2023-05-13T03:55:19.889Z,97.66
2023-05-13T03:56:19.929Z,97.77
2023-05-13T03:57:19.928Z,97.77
2023-05-13T03:58:19.858Z,97.87
2023-05-13T03:59:19.854Z,97.87
2023-05-13T04:00:20.011Z,97.77
2023-05-13T04:01:19.846Z,97.77
2023-05-13T04:02:19.885Z,97.66
2023-05-13T04:03:19.837Z,97.56
2023-05-13T04:04:19.780Z,97.56
2023-05-13T04:05:19.816Z,97.66
2023-05-13T04:06:19.757Z,97.56
2023-05-13T04:07:19.744Z,97.56
2023-05-13T04:08:19.799Z,97.50
2023-05-13T04:09:19.806Z,97.50
2023-05-13T04:10:19.910Z,97.61
2023-05-13T04:11:19.735Z,97.71
2023-05-13T04:12:19.722Z,97.71
2023-05-13T04:13:19.677Z,97.66
2023-05-13T04:14:19.664Z,97.77
2023-05-13T04:15:19.656Z,97.77
2023-05-13T04:16:19.674Z,97.66
2023-05-13T04:17:19.612Z,97.71
2023-05-13T04:18:19.625Z,97.56
2023-05-13T04:19:19.604Z,97.61
2023-05-13T04:20:19.961Z,97.61
2023-05-13T04:21:19.619Z,97.61
2023-05-13T04:22:19.557Z,97.61
2023-05-13T04:23:19.558Z,97.71
2023-05-13T04:24:19.535Z,97.71
2023-05-13T04:25:19.506Z,97.71
2023-05-13T04:26:19.535Z,97.71
2023-05-13T04:27:19.510Z,97.81
2023-05-13T04:28:19.474Z,97.81
2023-05-13T04:29:19.472Z,97.91
2023-05-13T04:30:19.708Z,97.81
2023-05-13T04:31:19.488Z,97.91
2023-05-13T04:32:19.397Z,97.91
2023-05-13T04:33:19.444Z,98.02
2023-05-13T04:34:19.463Z,98.02
2023-05-13T04:35:19.403Z,98.11
2023-05-13T04:36:19.408Z,98.02
2023-05-13T04:37:19.387Z,97.97
2023-05-13T04:38:19.319Z,97.97
2023-05-13T04:39:19.350Z,97.97
2023-05-13T04:40:19.505Z,97.97
2023-05-13T04:41:19.379Z,98.07
2023-05-13T04:42:19.288Z,98.07
2023-05-13T04:43:19.252Z,98.07
2023-05-13T04:44:19.277Z,98.07
2023-05-13T04:45:19.284Z,97.97
2023-05-13T04:46:19.243Z,98.07
2023-05-13T04:47:19.254Z,98.07
2023-05-13T04:48:19.196Z,98.02
2023-05-13T04:49:19.172Z,97.82
2023-05-13T04:50:19.284Z,97.72
2023-05-13T04:51:19.221Z,97.72
2023-05-13T04:52:19.156Z,97.62
2023-05-13T04:53:19.146Z,97.72
2023-05-13T04:54:19.100Z,97.62
2023-05-13T04:55:19.117Z,97.62
2023-05-13T04:56:19.128Z,97.52
2023-05-13T04:57:19.101Z,97.41
2023-05-13T04:58:19.100Z,97.41
2023-05-13T04:59:19.089Z,97.41
2023-05-13T05:00:19.237Z,97.52
2023-05-13T05:01:19.098Z,97.52
2023-05-13T05:02:19.052Z,97.62
2023-05-13T05:03:19.044Z,97.52
2023-05-13T05:04:19.133Z,97.52
2023-05-13T05:05:19.036Z,97.41
2023-05-13T05:06:18.973Z,97.41
2023-05-13T05:07:18.976Z,97.41
2023-05-13T05:08:18.944Z,97.41
2023-05-13T05:09:18.926Z,97.41
2023-05-13T05:10:19.089Z,97.41
2023-05-13T05:11:18.948Z,97.37
2023-05-13T05:12:18.866Z,97.47
2023-05-13T05:13:18.889Z,97.47
2023-05-13T05:14:18.839Z,97.47
2023-05-13T05:15:18.891Z,97.47
2023-05-13T05:16:18.869Z,97.57
2023-05-13T05:17:18.845Z,97.57
2023-05-13T05:18:18.885Z,97.47
2023-05-13T05:19:18.834Z,97.57
2023-05-13T05:20:19.017Z,97.57
2023-05-13T05:21:18.840Z,97.53
2023-05-13T05:22:18.782Z,97.53
2023-05-13T05:23:18.765Z,97.63
2023-05-13T05:24:18.712Z,97.63
2023-05-13T05:25:18.728Z,97.63
2023-05-13T05:26:18.737Z,97.63
2023-05-13T05:27:18.692Z,97.63
2023-05-13T05:28:18.655Z,97.58
2023-05-13T05:29:18.697Z,97.58
2023-05-13T05:30:18.659Z,97.58
2023-05-13T05:31:18.724Z,97.58
2023-05-13T05:32:18.669Z,97.58
2023-05-13T05:33:18.600Z,97.58
2023-05-13T05:34:18.567Z,97.53
2023-05-13T05:35:18.592Z,97.64
2023-05-13T05:36:18.613Z,97.53
2023-05-13T05:37:18.580Z,97.33
2023-05-13T05:38:18.558Z,97.23
2023-05-13T05:39:18.542Z,97.03
2023-05-13T05:40:18.572Z,97.13
2023-05-13T05:41:18.517Z,97.13
2023-05-13T05:42:18.502Z,97.13
2023-05-13T05:43:18.490Z,97.08
2023-05-13T05:44:18.468Z,96.98
2023-05-13T05:45:18.461Z,96.88
2023-05-13T05:46:18.510Z,96.78
2023-05-13T05:47:18.413Z,96.78
2023-05-13T05:48:18.424Z,96.78
2023-05-13T05:49:18.379Z,96.78
2023-05-13T05:50:18.466Z,96.68
2023-05-13T05:51:18.376Z,96.58
2023-05-13T05:52:18.432Z,96.53
2023-05-13T05:53:18.387Z,96.43
2023-05-13T05:54:18.478Z,96.43
2023-05-13T05:55:18.303Z,96.43
2023-05-13T05:56:18.400Z,96.43
2023-05-13T05:57:18.311Z,96.23
2023-05-13T05:58:18.296Z,95.72
2023-05-13T05:59:18.251Z,95.51
2023-05-13T06:00:18.296Z,95.51
2023-05-13T06:01:18.237Z,95.51
2023-05-13T06:02:18.298Z,95.72
2023-05-13T06:03:18.320Z,95.62
2023-05-13T06:04:18.301Z,95.41
2023-05-13T06:05:18.229Z,95.41
2023-05-13T06:06:18.173Z,95.31
2023-05-13T06:07:18.254Z,95.37
2023-05-13T06:08:18.207Z,95.37
2023-05-13T06:09:18.116Z,95.37
2023-05-13T06:10:18.144Z,95.26
2023-05-13T06:11:18.088Z,95.26
2023-05-13T06:12:18.088Z,95.26
2023-05-13T06:13:18.122Z,95.26
2023-05-13T06:14:18.115Z,95.37
2023-05-13T06:15:18.065Z,95.42
2023-05-13T06:16:18.130Z,95.42
2023-05-13T06:17:18.016Z,95.42
2023-05-13T06:18:18.041Z,95.42
2023-05-13T06:19:18.046Z,95.53
2023-05-13T06:20:18.019Z,95.42
2023-05-13T06:21:17.960Z,95.32
2023-05-13T06:22:18.015Z,95.02
2023-05-13T06:23:17.974Z,94.82
2023-05-13T06:24:17.932Z,94.71
2023-05-13T06:25:17.919Z,94.57
2023-05-13T06:26:17.989Z,94.77
2023-05-13T06:27:17.917Z,94.57
2023-05-13T06:28:17.971Z,94.37
2023-05-13T06:29:17.852Z,94.17
2023-05-13T06:30:17.850Z,94.17
2023-05-13T06:31:17.903Z,93.91
2023-05-13T06:32:17.859Z,92.90
2023-05-13T06:33:17.884Z,92.49
2023-05-13T06:34:17.828Z,92.29
2023-05-13T06:35:17.811Z,92.09
2023-05-13T06:36:17.781Z,92.05
2023-05-13T06:37:17.775Z,91.74
2023-05-13T06:38:17.782Z,91.13
2023-05-13T06:39:17.750Z,90.99
2023-05-13T06:40:17.763Z,91.09
2023-05-13T06:41:17.742Z,91.19
2023-05-13T06:42:17.725Z,91.15
2023-05-13T06:43:17.710Z,91.15
2023-05-13T06:44:17.694Z,91.05
2023-05-13T06:45:17.665Z,90.80
2023-05-13T06:46:17.644Z,90.40
2023-05-13T06:47:17.931Z,89.99
2023-05-13T06:48:17.640Z,86.76
2023-05-13T06:49:25.277Z,85.44
2023-05-13T06:50:17.601Z,84.83
2023-05-13T06:51:17.605Z,84.79
2023-05-13T06:52:17.657Z,85.19
2023-05-13T06:53:17.568Z,85.10
2023-05-13T06:54:17.572Z,84.08
2023-05-13T06:55:17.558Z,83.98
2023-05-13T06:56:17.552Z,83.78
2023-05-13T06:57:17.485Z,83.58
2023-05-13T06:58:17.528Z,84.39
2023-05-13T06:59:17.483Z,85.36
2023-05-13T07:00:17.500Z,84.14
2023-05-13T07:01:17.506Z,83.74
2023-05-13T07:02:17.464Z,84.04
2023-05-13T07:03:17.448Z,84.04
2023-05-13T07:04:17.470Z,84.34
2023-05-13T07:05:17.381Z,84.91
2023-05-13T07:06:17.412Z,85.52
2023-05-13T07:07:17.377Z,85.72
2023-05-13T07:08:17.360Z,85.31
2023-05-13T07:09:17.367Z,84.51
2023-05-13T07:10:17.331Z,84.20
2023-05-13T07:11:17.373Z,84.11
2023-05-13T07:12:17.326Z,84.20
2023-05-13T07:13:17.309Z,83.90
2023-05-13T07:14:17.286Z,83.50
2023-05-13T07:15:17.243Z,83.19
2023-05-13T07:16:17.277Z,81.37
2023-05-13T07:17:17.433Z,80.16
2023-05-13T07:18:17.322Z,79.35
2023-05-13T07:19:17.319Z,79.55
2023-05-13T07:20:17.227Z,79.86
2023-05-13T07:21:17.241Z,80.53
2023-05-13T07:22:17.249Z,81.03
2023-05-13T07:23:17.154Z,79.92
2023-05-13T07:24:17.259Z,80.12
2023-05-13T07:25:17.184Z,80.43
2023-05-13T07:26:17.336Z,80.53
2023-05-13T07:27:17.117Z,80.53
2023-05-13T07:28:17.101Z,81.03
2023-05-13T07:29:17.089Z,81.64
2023-05-13T07:30:17.108Z,81.94
2023-05-13T07:31:17.176Z,81.84
2023-05-13T07:32:17.057Z,80.53
2023-05-13T07:33:17.014Z,80.39
2023-05-13T07:34:17.009Z,80.19
2023-05-13T07:35:17.006Z,80.29
2023-05-13T07:36:17.004Z,80.15
2023-05-13T07:37:16.964Z,79.34
2023-05-13T07:38:16.978Z,78.13
2023-05-13T07:39:16.957Z,77.83
2023-05-13T07:40:16.970Z,77.39
2023-05-13T07:41:16.922Z,76.58
2023-05-13T07:42:16.941Z,77.08
2023-05-13T07:43:16.910Z,76.98
2023-05-13T07:44:16.909Z,74.76
2023-05-13T07:45:16.903Z,74.93
2023-05-13T07:46:16.853Z,76.04
2023-05-13T07:47:16.965Z,74.66
2023-05-13T07:48:16.820Z,72.44
2023-05-13T07:49:16.818Z,72.85
2023-05-13T07:50:16.796Z,73.85
2023-05-13T07:51:16.794Z,75.67
2023-05-13T07:52:16.812Z,76.18
2023-05-13T07:53:18.291Z,76.38
2023-05-13T07:54:16.779Z,76.38
2023-05-13T07:55:16.762Z,76.88
2023-05-13T07:56:16.765Z,77.02
2023-05-13T07:57:16.703Z,76.62
2023-05-13T07:58:16.722Z,76.82
2023-05-13T07:59:16.684Z,78.33
2023-05-13T08:00:16.676Z,78.53
2023-05-13T08:01:16.649Z,78.94
2023-05-13T08:02:16.695Z,79.14
2023-05-13T08:03:16.690Z,79.14
2023-05-13T08:04:16.827Z,79.54
2023-05-13T08:05:16.598Z,80.35
2023-05-13T08:06:16.582Z,79.74
2023-05-13T08:07:16.644Z,79.64
2023-05-13T08:08:16.613Z,79.54
2023-05-13T08:09:16.545Z,79.64
2023-05-13T08:10:16.562Z,78.27
2023-05-13T08:11:16.559Z,78.06
2023-05-13T08:12:16.566Z,78.47
2023-05-13T08:13:16.479Z,78.33
2023-05-13T08:14:16.505Z,78.43
2023-05-13T08:15:16.478Z,78.13
2023-05-13T08:16:16.510Z,78.23
2023-05-13T08:17:16.517Z,77.42
2023-05-13T08:18:16.441Z,77.42
2023-05-13T08:19:16.561Z,77.32
2023-05-13T08:20:16.424Z,77.32
2023-05-13T08:21:16.387Z,77.79
2023-05-13T08:22:16.400Z,77.89
2023-05-13T08:23:16.359Z,77.28
2023-05-13T08:24:16.388Z,78.80
2023-05-13T08:25:16.332Z,78.59
2023-05-13T08:26:16.348Z,79.00
2023-05-13T08:27:16.349Z,77.79
2023-05-13T08:28:16.327Z,77.89
2023-05-13T08:29:16.282Z,77.99
2023-05-13T08:30:16.282Z,77.89
2023-05-13T08:31:16.287Z,76.88
2023-05-13T08:32:16.392Z,76.78
2023-05-13T08:33:16.246Z,77.19
2023-05-13T08:34:16.219Z,77.19
2023-05-13T08:35:16.222Z,76.48
2023-05-13T08:36:16.296Z,76.78
2023-05-13T08:37:16.219Z,77.08
2023-05-13T08:38:16.192Z,76.78
2023-05-13T08:39:16.152Z,77.86
2023-05-13T08:40:16.185Z,78.16
2023-05-13T08:41:16.147Z,77.15
2023-05-13T08:42:16.151Z,76.14
2023-05-13T08:43:16.139Z,76.34
2023-05-13T08:44:16.109Z,76.04
2023-05-13T08:45:16.084Z,75.43
2023-05-13T08:46:16.127Z,74.93
2023-05-13T08:47:16.056Z,75.94
2023-05-13T08:48:16.095Z,76.14
2023-05-13T08:49:16.068Z,76.51
2023-05-13T08:50:16.048Z,75.50
2023-05-13T08:51:15.990Z,74.69
2023-05-13T08:52:16.046Z,73.58
2023-05-13T08:53:15.964Z,73.88
2023-05-13T08:54:15.983Z,74.39
2023-05-13T08:55:15.966Z,74.69
2023-05-13T08:56:16.025Z,76.37
2023-05-13T08:57:15.946Z,73.85
2023-05-13T08:58:15.920Z,73.35
2023-05-13T08:59:15.904Z,73.65
2023-05-13T09:00:15.959Z,73.14
2023-05-13T09:01:15.935Z,72.54
2023-05-13T09:02:15.892Z,72.94
2023-05-13T09:03:15.878Z,71.73
2023-05-13T09:04:15.871Z,73.41
2023-05-13T09:05:15.980Z,72.31
2023-05-13T09:06:15.832Z,70.79
2023-05-13T09:07:15.847Z,71.91
2023-05-13T09:08:15.810Z,71.60
2023-05-13T09:09:15.769Z,70.79
2023-05-13T09:10:15.770Z,71.91
2023-05-13T09:11:15.736Z,72.00
2023-05-13T09:12:15.765Z,72.20
2023-05-13T09:13:15.733Z,72.61
2023-05-13T09:14:15.745Z,72.41
2023-05-13T09:15:15.690Z,71.20
2023-05-13T09:16:15.750Z,71.73
2023-05-13T09:17:15.701Z,70.93
2023-05-13T09:18:17.996Z,71.33
2023-05-13T09:19:15.863Z,72.34
2023-05-13T09:20:15.762Z,72.44
2023-05-13T09:21:15.598Z,72.64
2023-05-13T09:22:15.684Z,73.75
2023-05-13T09:23:15.624Z,74.05
2023-05-13T09:24:15.570Z,73.61
2023-05-13T09:25:15.575Z,72.41
2023-05-13T09:26:15.553Z,73.82
2023-05-13T09:27:15.519Z,76.90
2023-05-13T09:28:15.621Z,76.16
2023-05-13T09:29:15.524Z,76.36
2023-05-13T09:30:15.520Z,73.44
2023-05-13T09:31:15.516Z,70.43
2023-05-13T09:32:15.503Z,68.62
2023-05-13T09:33:15.578Z,70.50
2023-05-13T09:34:15.472Z,68.98
2023-05-13T09:35:15.434Z,67.68
2023-05-13T09:36:15.425Z,67.58
2023-05-13T09:37:15.397Z,67.74
2023-05-13T09:38:15.387Z,69.15
2023-05-13T09:39:15.429Z,68.55
2023-05-13T09:40:15.387Z,67.74
2023-05-13T09:41:15.360Z,70.73
2023-05-13T09:42:15.370Z,68.52
2023-05-13T09:43:15.350Z,68.32
2023-05-13T09:44:15.342Z,68.21
2023-05-13T09:45:15.306Z,69.52
2023-05-13T09:46:15.295Z,69.19
2023-05-13T09:47:15.336Z,69.49
2023-05-13T09:48:15.285Z,70.89
2023-05-13T09:49:15.292Z,70.09
2023-05-13T09:50:15.234Z,69.49
2023-05-13T09:51:15.228Z,69.99
2023-05-13T09:52:15.197Z,69.09
2023-05-13T09:53:15.243Z,70.19
2023-05-13T09:54:15.181Z,70.70
2023-05-13T09:55:15.174Z,71.00
2023-05-13T09:56:15.203Z,68.08
2023-05-13T09:57:15.193Z,64.97
2023-05-13T09:58:15.157Z,66.17
2023-05-13T09:59:15.235Z,66.58
2023-05-13T10:00:28.982Z,65.88
2023-05-13T10:01:16.146Z,65.47
2023-05-13T10:02:15.070Z,62.56
2023-05-13T10:03:15.173Z,64.17
2023-05-13T10:04:15.139Z,66.08
2023-05-13T10:05:15.066Z,66.47
2023-05-13T10:06:15.027Z,65.97
2023-05-13T10:07:15.081Z,66.88
2023-05-13T10:08:15.022Z,68.59
2023-05-13T10:09:15.031Z,68.08
2023-05-13T10:10:15.022Z,69.19
2023-05-13T10:11:15.425Z,66.28
2023-05-13T10:12:14.974Z,65.47
2023-05-13T10:13:14.975Z,66.88
2023-05-13T10:14:14.939Z,66.88
2023-05-13T10:15:14.966Z,67.48
2023-05-13T10:16:14.903Z,67.08
2023-05-13T10:17:14.932Z,69.19
2023-05-13T10:18:14.943Z,65.77
2023-05-13T10:19:15.063Z,67.08
2023-05-13T10:20:14.893Z,65.77
2023-05-13T10:21:14.839Z,67.38
2023-05-13T10:22:14.866Z,65.47
2023-05-13T10:23:14.834Z,68.15
2023-05-13T10:24:14.810Z,68.76
2023-05-13T10:25:14.801Z,67.55
2023-05-13T10:26:14.787Z,67.35
2023-05-13T10:27:14.752Z,68.45
2023-05-13T10:28:14.722Z,66.95
2023-05-13T10:29:14.733Z,64.84
2023-05-13T10:30:14.708Z,63.10
2023-05-13T10:31:14.905Z,64.81
2023-05-13T10:32:14.853Z,68.12
2023-05-13T10:33:14.782Z,65.81
2023-05-13T10:34:14.640Z,66.01
2023-05-13T10:35:14.639Z,65.11
2023-05-13T10:36:14.644Z,64.31
2023-05-13T10:37:14.639Z,64.51
2023-05-13T10:38:14.600Z,61.90
2023-05-13T10:39:14.624Z,63.60
2023-05-13T10:40:14.597Z,63.31
2023-05-13T10:41:14.646Z,60.86
2023-05-13T10:42:14.590Z,62.37
2023-05-13T10:43:14.528Z,62.87
2023-05-13T10:44:14.539Z,64.68
2023-05-13T10:45:14.544Z,64.48
2023-05-13T10:46:14.594Z,61.57
2023-05-13T10:47:14.610Z,63.17
2023-05-13T10:48:14.588Z,60.97
2023-05-13T10:49:14.476Z,59.94
2023-05-13T10:50:14.462Z,59.03
2023-05-13T10:51:14.499Z,61.44
2023-05-13T10:52:14.431Z,61.44
2023-05-13T10:53:14.395Z,60.84
2023-05-13T10:54:14.374Z,61.04
2023-05-13T10:55:14.367Z,60.71
2023-05-13T10:56:14.375Z,58.91
2023-05-13T10:57:14.364Z,57.30
2023-05-13T10:58:14.376Z,57.07
2023-05-13T10:59:14.368Z,56.57
2023-05-13T11:00:14.360Z,56.87
2023-05-13T11:01:14.379Z,56.07
2023-05-13T11:02:14.308Z,56.77
2023-05-13T11:03:14.573Z,56.45
2023-05-13T11:04:14.286Z,57.07
2023-05-13T11:05:14.270Z,56.07
2023-05-13T11:06:14.219Z,56.98
2023-05-13T11:07:14.265Z,58.05
2023-05-13T11:08:14.240Z,56.05
2023-05-13T11:09:14.204Z,55.44
2023-05-13T11:10:14.193Z,55.15
2023-05-13T11:11:14.194Z,56.02
2023-05-13T11:12:14.133Z,54.02
2023-05-13T11:13:14.161Z,54.62
2023-05-13T11:14:14.137Z,54.42
2023-05-13T11:15:14.136Z,54.52
2023-05-13T11:16:14.121Z,53.99
2023-05-13T11:17:14.096Z,52.99
2023-05-13T11:18:14.108Z,52.39
2023-05-13T11:19:14.147Z,51.69
2023-05-13T11:20:14.049Z,52.29
2023-05-13T11:21:14.087Z,53.49
2023-05-13T11:22:14.041Z,52.47
2023-05-13T11:23:14.050Z,53.57
2023-05-13T11:24:14.028Z,53.37
2023-05-13T11:25:14.005Z,55.36
2023-05-13T11:26:14.049Z,54.06
2023-05-13T11:27:13.996Z,54.17
2023-05-13T11:28:13.928Z,54.37
2023-05-13T11:29:14.049Z,53.77
2023-05-13T11:30:13.946Z,51.27
2023-05-13T11:31:13.991Z,50.77
2023-05-13T11:32:13.932Z,49.07
2023-05-13T11:33:14.002Z,49.69
2023-05-13T11:34:13.891Z,49.37
2023-05-13T11:35:13.890Z,48.90
2023-05-13T11:36:13.841Z,49.49
2023-05-13T11:37:13.828Z,50.09
2023-05-13T11:38:13.857Z,51.79
2023-05-13T11:39:13.866Z,52.72
2023-05-13T11:40:13.853Z,53.02
2023-05-13T11:41:13.804Z,55.65
2023-05-13T11:42:13.744Z,58.05
2023-05-13T11:43:13.794Z,57.65
2023-05-13T11:44:13.747Z,57.48
2023-05-13T11:45:13.761Z,57.17
2023-05-13T11:46:13.797Z,57.78
2023-05-13T11:47:13.739Z,58.40
2023-05-13T11:48:13.719Z,59.41
2023-05-13T11:49:13.740Z,59.64
2023-05-13T11:50:13.661Z,59.74
2023-05-13T11:51:13.643Z,57.83
2023-05-13T11:52:13.667Z,57.96
2023-05-13T11:53:13.647Z,59.36
2023-05-13T11:54:13.599Z,59.66
2023-05-13T11:55:13.648Z,60.57
2023-05-13T11:56:13.575Z,60.06
2023-05-13T11:57:13.585Z,59.06
2023-05-13T11:58:13.548Z,58.86
2023-05-13T11:59:13.601Z,57.98
2023-05-13T12:00:13.542Z,58.39
2023-05-13T12:01:13.558Z,59.01
2023-05-13T12:02:13.616Z,61.13
2023-05-13T12:03:13.573Z,62.13
2023-05-13T12:04:13.496Z,60.32
2023-05-13T12:05:13.563Z,62.33
2023-05-13T12:06:13.459Z,61.13
2023-05-13T12:07:13.489Z,60.02
2023-05-13T12:08:13.415Z,62.13
2023-05-13T12:09:13.467Z,63.13
2023-05-13T12:10:13.468Z,61.93
2023-05-13T12:11:13.425Z,60.52
2023-05-13T12:12:13.392Z,59.92
2023-05-13T12:13:13.493Z,59.92
2023-05-13T12:14:13.354Z,60.82
2023-05-13T12:15:13.395Z,61.43
2023-05-13T12:16:13.420Z,62.23
2023-05-13T12:17:13.300Z,61.22
2023-05-13T12:18:13.367Z,57.44
2023-05-13T12:19:13.377Z,56.93
2023-05-13T12:20:13.472Z,57.34
2023-05-13T12:21:13.275Z,57.04
2023-05-13T12:22:13.261Z,59.14
2023-05-13T12:23:13.232Z,59.45
2023-05-13T12:24:13.215Z,59.95
2023-05-13T12:25:13.220Z,57.64
2023-05-13T12:26:13.195Z,58.11
2023-05-13T12:27:13.186Z,58.42
2023-05-13T12:28:13.257Z,59.01
2023-05-13T12:29:13.150Z,60.22
2023-05-13T12:30:13.177Z,60.02
2023-05-13T12:31:13.211Z,60.12
2023-05-13T12:32:13.126Z,59.22
2023-05-13T12:33:13.100Z,60.62
2023-05-13T12:34:13.103Z,59.72
2023-05-13T12:35:13.075Z,59.62
2023-05-13T12:36:13.071Z,59.72
2023-05-13T12:37:13.512Z,59.12
2023-05-13T12:38:13.051Z,56.93
2023-05-13T12:39:13.048Z,57.44
2023-05-13T12:40:13.037Z,57.14
2023-05-13T12:41:13.032Z,54.93
2023-05-13T12:42:13.066Z,56.93
2023-05-13T12:43:12.977Z,56.03
2023-05-13T12:44:12.948Z,55.03
2023-05-13T12:45:12.983Z,54.50
2023-05-13T12:46:12.974Z,54.10
2023-05-13T12:47:12.972Z,53.39
2023-05-13T12:48:12.921Z,56.30
2023-05-13T12:49:12.885Z,56.61
2023-05-13T12:50:20.446Z,57.41
2023-05-13T12:51:14.656Z,56.91
2023-05-13T12:52:14.657Z,55.00